createdAt,value
2022-09-23T00:01:12.547Z,6.99
2022-09-23T00:03:41.926Z,6.97
2022-09-23T00:06:12.200Z,6.80
2022-09-23T00:08:40.729Z,6.78
2022-09-23T00:11:11.465Z,6.85
2022-09-23T00:13:43.559Z,6.89
2022-09-23T00:16:13.996Z,6.91
2022-09-23T00:18:42.180Z,6.90
2022-09-23T00:21:11.946Z,6.81
2022-09-23T00:23:41.179Z,6.80
2022-09-23T00:26:12.179Z,6.76
2022-09-23T00:28:40.108Z,6.75
2022-09-23T00:31:09.383Z,6.74
2022-09-23T00:33:37.797Z,6.75
2022-09-23T00:36:07.755Z,6.72
2022-09-23T00:38:37.018Z,6.67
2022-09-23T00:41:05.336Z,6.68
2022-09-23T00:43:40.839Z,6.70
2022-09-23T00:46:10.217Z,6.71
2022-09-23T00:48:41.072Z,6.69
2022-09-23T00:51:11.998Z,6.68
2022-09-23T00:53:40.664Z,6.65
2022-09-23T00:56:10.671Z,6.61
2022-09-23T00:58:41.967Z,6.58
2022-09-23T01:01:09.621Z,6.54
2022-09-23T01:03:37.615Z,6.66
2022-09-23T01:06:06.625Z,6.68
2022-09-23T01:08:37.510Z,6.61
2022-09-23T01:11:14.651Z,6.57
2022-09-23T01:13:56.007Z,6.61
2022-09-23T01:16:33.179Z,6.57
2022-09-23T01:19:11.478Z,6.45
2022-09-23T01:21:48.869Z,6.40
2022-09-23T01:24:42.728Z,6.35
2022-09-23T01:27:47.712Z,6.18
2022-09-23T01:30:36.672Z,6.04
2022-09-23T01:33:10.989Z,5.98
2022-09-23T01:35:48.166Z,6.00
2022-09-23T01:38:27.682Z,5.96
2022-09-23T01:41:03.655Z,5.91
2022-09-23T01:43:41.073Z,5.95
2022-09-23T01:46:16.543Z,6.05
2022-09-23T01:48:50.062Z,6.06
2022-09-23T01:51:23.881Z,6.03
2022-09-23T01:53:58.770Z,6.11
2022-09-23T01:56:30.626Z,6.18
2022-09-23T01:59:05.601Z,6.14
2022-09-23T02:01:40.403Z,6.01
2022-09-23T02:04:13.460Z,6.01
2022-09-23T02:06:46.200Z,5.97
2022-09-23T02:09:16.813Z,5.91
2022-09-23T02:11:48.009Z,5.85
2022-09-23T02:14:21.977Z,5.87
2022-09-23T02:16:54.104Z,5.89
2022-09-23T02:19:26.437Z,5.96
2022-09-23T02:22:02.340Z,6.01
2022-09-23T02:24:32.002Z,6.03
2022-09-23T02:27:08.333Z,5.94
2022-09-23T02:29:48.283Z,5.97
2022-09-23T02:32:23.007Z,6.00
2022-09-23T02:35:00.132Z,5.98
2022-09-23T02:37:36.594Z,6.00
2022-09-23T02:40:17.119Z,5.83
2022-09-23T02:42:52.894Z,5.95
2022-09-23T02:45:20.667Z,5.94
2022-09-23T02:47:56.909Z,5.95
2022-09-23T02:50:25.321Z,5.90
2022-09-23T02:52:53.060Z,5.88
2022-09-23T02:55:23.435Z,5.91
2022-09-23T02:57:51.493Z,5.87
2022-09-23T03:00:19.445Z,5.79
2022-09-23T03:03:06.647Z,5.75
2022-09-23T03:05:42.927Z,5.74
2022-09-23T03:08:38.448Z,5.74
2022-09-23T03:11:08.731Z,5.70
2022-09-23T03:13:50.523Z,5.74
2022-09-23T03:16:30.269Z,5.71
2022-09-23T03:19:12.161Z,5.68
2022-09-23T03:21:45.238Z,5.62
2022-09-23T03:24:15.840Z,5.55
2022-09-23T03:26:46.742Z,5.60
2022-09-23T03:29:16.391Z,5.55
2022-09-23T03:31:45.080Z,5.52
2022-09-23T03:34:19.085Z,5.57
2022-09-23T03:36:52.767Z,5.53
2022-09-23T03:39:30.613Z,5.52
2022-09-23T03:42:02.367Z,5.55
2022-09-23T03:44:30.758Z,5.54
2022-09-23T03:47:02.285Z,5.54
2022-09-23T03:49:36.109Z,5.60
2022-09-23T03:52:04.155Z,5.56
2022-09-23T03:54:31.954Z,5.59
2022-09-23T03:57:01.164Z,5.59
2022-09-23T03:59:30.141Z,5.58
2022-09-23T04:01:58.051Z,5.56
2022-09-23T04:04:25.987Z,5.64
2022-09-23T04:06:55.205Z,5.70
2022-09-23T04:09:23.242Z,5.72
2022-09-23T04:11:52.052Z,5.69
2022-09-23T04:14:21.170Z,5.70
2022-09-23T04:16:49.848Z,5.70
2022-09-23T04:19:18.576Z,5.68
2022-09-23T04:21:46.392Z,5.77
2022-09-23T04:24:17.119Z,5.84
2022-09-23T04:26:45.255Z,5.82
2022-09-23T04:29:12.861Z,5.86
2022-09-23T04:31:40.462Z,5.98
2022-09-23T04:34:08.235Z,5.99
2022-09-23T04:36:35.871Z,6.01
2022-09-23T04:39:04.037Z,6.03
2022-09-23T04:41:33.094Z,6.11
2022-09-23T04:44:04.693Z,6.18
2022-09-23T04:46:32.354Z,6.21
2022-09-23T04:49:00.348Z,6.32
2022-09-23T04:51:28.750Z,6.35
2022-09-23T04:53:56.349Z,6.49
2022-09-23T04:56:26.341Z,6.51
2022-09-23T04:58:55.799Z,6.64
2022-09-23T05:01:25.392Z,6.72
2022-09-23T05:03:55.354Z,6.81
2022-09-23T05:06:23.613Z,6.93
2022-09-23T05:08:52.813Z,7.07
2022-09-23T05:11:21.904Z,7.18
2022-09-23T05:13:51.422Z,7.30
2022-09-23T05:16:21.859Z,7.41
2022-09-23T05:18:50.321Z,7.46
2022-09-23T05:21:19.651Z,7.49
2022-09-23T05:23:48.855Z,7.60
2022-09-23T05:26:16.757Z,7.72
2022-09-23T05:28:44.767Z,7.89
2022-09-23T05:31:20.587Z,8.03
2022-09-23T05:33:52.190Z,8.19
2022-09-23T05:36:20.764Z,8.31
2022-09-23T05:38:49.029Z,8.45
2022-09-23T05:41:17.081Z,8.55
2022-09-23T05:43:45.758Z,8.61
2022-09-23T05:46:15.887Z,8.72
2022-09-23T05:48:44.191Z,8.86
2022-09-23T05:51:16.421Z,8.93
2022-09-23T05:53:44.561Z,9.03
2022-09-23T05:56:12.757Z,9.12
2022-09-23T05:58:41.330Z,9.26
2022-09-23T06:01:13.891Z,9.42
2022-09-23T06:03:42.409Z,9.60
2022-09-23T06:06:13.127Z,9.71
2022-09-23T06:08:42.667Z,9.81
2022-09-23T06:11:11.122Z,9.93
2022-09-23T06:13:39.824Z,10.01
2022-09-23T06:16:10.050Z,10.17
2022-09-23T06:18:39.334Z,10.29
2022-09-23T06:21:08.051Z,10.42
2022-09-23T06:23:40.918Z,10.58
2022-09-23T06:26:15.173Z,10.70
2022-09-23T06:28:43.875Z,10.85
2022-09-23T06:31:13.907Z,11.01
2022-09-23T06:33:42.392Z,11.11
2022-09-23T06:36:11.177Z,11.12
2022-09-23T06:38:41.699Z,11.37
2022-09-23T06:41:09.237Z,11.54
2022-09-23T06:43:38.876Z,11.57
2022-09-23T06:46:08.216Z,11.52
2022-09-23T06:48:36.035Z,11.63
2022-09-23T06:51:06.104Z,11.76
2022-09-23T06:53:34.282Z,11.78
2022-09-23T06:56:04.207Z,11.97
2022-09-23T06:58:33.857Z,12.23
2022-09-23T07:01:12.337Z,12.36
2022-09-23T07:03:40.411Z,12.50
2022-09-23T07:06:08.110Z,12.50
2022-09-23T07:08:36.380Z,12.49
2022-09-23T07:11:06.643Z,12.59
2022-09-23T07:13:34.554Z,12.61
2022-09-23T07:16:02.642Z,12.58
2022-09-23T07:18:36.776Z,12.68
2022-09-23T07:21:09.807Z,12.73
2022-09-23T07:23:37.961Z,12.77
2022-09-23T07:26:06.453Z,12.76
2022-09-23T07:28:34.853Z,12.76
2022-09-23T07:31:07.862Z,12.76
2022-09-23T07:33:38.842Z,12.87
2022-09-23T07:36:09.296Z,12.90
2022-09-23T07:38:41.525Z,12.90
2022-09-23T07:41:15.436Z,12.88
2022-09-23T07:43:43.211Z,13.02
2022-09-23T07:46:13.389Z,13.33
2022-09-23T07:48:43.423Z,13.55
2022-09-23T07:51:13.445Z,13.62
2022-09-23T07:53:41.231Z,13.56
2022-09-23T07:56:09.186Z,13.61
2022-09-23T07:58:36.811Z,13.84
2022-09-23T08:01:08.868Z,13.94
2022-09-23T08:03:36.926Z,14.06
2022-09-23T08:06:09.467Z,14.21
2022-09-23T08:08:38.869Z,14.33
2022-09-23T08:11:09.541Z,14.38
2022-09-23T08:13:38.963Z,14.43
2022-09-23T08:16:06.791Z,14.49
2022-09-23T08:18:35.868Z,14.58
2022-09-23T08:21:04.191Z,14.78
2022-09-23T08:23:34.412Z,14.61
2022-09-23T08:26:04.707Z,14.60
2022-09-23T08:28:33.071Z,14.79
2022-09-23T08:31:00.771Z,14.82
2022-09-23T08:33:28.973Z,15.03
2022-09-23T08:36:00.564Z,15.04
2022-09-23T08:38:28.233Z,14.97
2022-09-23T08:41:12.533Z,14.97
2022-09-23T08:43:44.555Z,15.16
2022-09-23T08:46:19.790Z,15.12
2022-09-23T08:48:49.164Z,15.27
2022-09-23T08:51:24.176Z,15.39
2022-09-23T08:53:52.986Z,15.56
2022-09-23T08:56:24.107Z,15.50
2022-09-23T08:59:00.526Z,15.36
2022-09-23T09:01:34.804Z,15.49
2022-09-23T09:04:12.779Z,15.39
2022-09-23T09:06:53.006Z,15.17
2022-09-23T09:09:27.511Z,15.03
2022-09-23T09:12:03.201Z,14.83
2022-09-23T09:14:39.264Z,14.75
2022-09-23T09:17:09.843Z,14.81
2022-09-23T09:19:56.481Z,14.75
2022-09-23T09:22:45.437Z,14.89
2022-09-23T09:25:22.977Z,14.87
2022-09-23T09:27:53.716Z,14.92
2022-09-23T09:30:21.692Z,15.13
2022-09-23T09:32:58.408Z,15.40
2022-09-23T09:35:33.715Z,15.39
2022-09-23T09:38:01.670Z,15.68
2022-09-23T09:40:29.773Z,16.04
2022-09-23T09:42:59.379Z,16.27
2022-09-23T09:45:42.014Z,16.37
2022-09-23T09:48:14.453Z,16.27
2022-09-23T09:50:45.868Z,16.42
2022-09-23T09:53:21.481Z,16.53
2022-09-23T09:56:03.717Z,16.27
2022-09-23T09:58:45.080Z,15.89
2022-09-23T10:01:20.488Z,15.73
2022-09-23T10:03:52.117Z,15.72
2022-09-23T10:06:23.934Z,15.60
2022-09-23T10:09:18.312Z,15.56
2022-09-23T10:12:10.759Z,15.69
2022-09-23T10:14:39.764Z,15.99
2022-09-23T10:17:15.127Z,16.29
2022-09-23T10:19:47.431Z,16.39
2022-09-23T10:22:20.777Z,16.26
2022-09-23T10:24:50.506Z,16.26
2022-09-23T10:27:30.228Z,16.55
2022-09-23T10:30:01.359Z,16.43
2022-09-23T10:32:32.367Z,16.52
2022-09-23T10:35:13.464Z,16.44
2022-09-23T10:37:43.631Z,16.68
2022-09-23T10:40:17.616Z,16.99
2022-09-23T10:42:58.405Z,17.42
2022-09-23T10:45:33.577Z,17.71
2022-09-23T10:48:15.160Z,17.76
2022-09-23T10:50:47.429Z,17.81
2022-09-23T10:53:21.246Z,17.61
2022-09-23T10:56:15.964Z,17.41
2022-09-23T10:59:12.142Z,17.34
2022-09-23T11:01:51.482Z,17.57
2022-09-23T11:04:38.581Z,17.64
2022-09-23T11:07:21.117Z,17.30
2022-09-23T11:10:23.366Z,16.97
2022-09-23T11:13:06.789Z,16.77
2022-09-23T11:15:44.853Z,16.57
2022-09-23T11:18:47.832Z,16.56
2022-09-23T11:21:45.619Z,16.70
2022-09-23T11:24:31.101Z,16.85
2022-09-23T11:27:08.160Z,16.88
2022-09-23T11:30:01.442Z,16.74
2022-09-23T11:33:00.201Z,16.50
2022-09-23T11:35:34.454Z,16.00
2022-09-23T11:38:07.386Z,15.98
2022-09-23T11:40:37.557Z,15.80
2022-09-23T11:43:18.727Z,15.83
2022-09-23T11:45:51.750Z,15.84
2022-09-23T11:48:25.557Z,15.77
2022-09-23T11:50:59.942Z,15.65
2022-09-23T11:53:37.936Z,15.62
2022-09-23T11:56:11.748Z,15.59
2022-09-23T11:58:50.728Z,15.57
2022-09-23T12:01:36.176Z,15.52
2022-09-23T12:04:19.061Z,15.83
2022-09-23T12:06:55.973Z,15.94
2022-09-23T12:09:56.780Z,15.98
2022-09-23T12:12:27.401Z,16.39
2022-09-23T12:15:02.843Z,16.49
2022-09-23T12:17:57.612Z,16.55
2022-09-23T12:20:48.635Z,16.22
2022-09-23T12:23:33.289Z,16.33
2022-09-23T12:26:03.581Z,16.28
2022-09-23T12:28:36.735Z,16.09
2022-09-23T12:31:10.353Z,15.80
2022-09-23T12:33:39.565Z,15.69
2022-09-23T12:36:09.058Z,15.61
2022-09-23T12:38:40.901Z,15.34
2022-09-23T12:41:26.773Z,15.36
2022-09-23T12:43:58.886Z,15.46
2022-09-23T12:46:27.230Z,15.47
2022-09-23T12:49:03.792Z,15.50
2022-09-23T12:51:32.691Z,15.47
2022-09-23T12:54:24.691Z,15.50
2022-09-23T12:57:00.882Z,15.48
2022-09-23T12:59:31.465Z,15.49
2022-09-23T13:02:23.109Z,15.54
2022-09-23T13:04:57.739Z,15.60
2022-09-23T13:07:27.636Z,15.67
2022-09-23T13:10:08.162Z,15.57
2022-09-23T13:12:39.426Z,15.29
2022-09-23T13:15:17.725Z,15.19
2022-09-23T13:17:45.693Z,15.23
2022-09-23T13:20:40.806Z,15.40
2022-09-23T13:23:22.130Z,15.50
2022-09-23T13:25:54.203Z,15.50
2022-09-23T13:28:28.800Z,15.52
2022-09-23T13:30:58.652Z,15.38
2022-09-23T13:33:34.859Z,15.32
2022-09-23T13:36:03.452Z,15.29
2022-09-23T13:38:31.478Z,15.31
2022-09-23T13:41:04.651Z,15.32
2022-09-23T13:43:40.993Z,15.27
2022-09-23T13:46:12.604Z,15.12
2022-09-23T13:48:43.111Z,15.05
2022-09-23T13:51:12.312Z,15.03
2022-09-23T13:53:40.155Z,15.06
2022-09-23T13:56:13.372Z,15.02
2022-09-23T13:58:42.620Z,15.04
2022-09-23T14:01:21.826Z,15.04
2022-09-23T14:03:49.815Z,14.97
2022-09-23T14:06:17.507Z,14.95
2022-09-23T14:08:48.911Z,14.80
2022-09-23T14:11:19.572Z,14.78
2022-09-23T14:13:50.155Z,14.75
2022-09-23T14:16:18.508Z,14.74
2022-09-23T14:18:51.009Z,14.52
2022-09-23T14:21:36.497Z,14.71
2022-09-23T14:24:14.966Z,14.62
2022-09-23T14:26:47.273Z,14.63
2022-09-23T14:29:17.700Z,14.60
2022-09-23T14:31:52.710Z,14.61
2022-09-23T14:34:43.548Z,14.66
2022-09-23T14:37:22.584Z,14.62
2022-09-23T14:39:53.485Z,14.61
2022-09-23T14:42:26.300Z,14.60
2022-09-23T14:44:54.114Z,14.52
2022-09-23T14:47:22.057Z,14.43
2022-09-23T14:49:51.060Z,14.38
2022-09-23T14:52:18.937Z,14.32
2022-09-23T14:54:50.715Z,14.22
2022-09-23T14:57:27.398Z,14.21
2022-09-23T14:59:58.613Z,14.22
2022-09-23T15:02:35.450Z,14.18
2022-09-23T15:05:29.920Z,14.15
2022-09-23T15:08:01.826Z,14.16
2022-09-23T15:10:32.386Z,14.12
2022-09-23T15:13:07.639Z,14.10
2022-09-23T15:15:35.927Z,13.99
2022-09-23T15:18:06.256Z,13.91
2022-09-23T15:20:35.262Z,13.78
2022-09-23T15:23:02.875Z,13.71
2022-09-23T15:25:39.645Z,13.65
2022-09-23T15:28:18.607Z,13.53
2022-09-23T15:30:46.448Z,13.46
2022-09-23T15:33:14.444Z,13.35
2022-09-23T15:35:46.162Z,13.20
2022-09-23T15:38:13.909Z,13.16
2022-09-23T15:40:42.008Z,13.10
2022-09-23T15:43:17.976Z,13.00
2022-09-23T15:45:51.039Z,12.89
2022-09-23T15:48:22.271Z,12.75
2022-09-23T15:50:51.131Z,12.71
2022-09-23T15:53:20.526Z,12.55
2022-09-23T15:55:48.627Z,12.46
2022-09-23T15:58:16.514Z,12.32
2022-09-23T16:00:44.800Z,12.21
2022-09-23T16:03:15.260Z,11.99
2022-09-23T16:05:49.208Z,11.96
2022-09-23T16:08:17.544Z,11.92
2022-09-23T16:10:46.453Z,12.00
2022-09-23T16:13:14.638Z,11.92
2022-09-23T16:15:42.976Z,11.71
2022-09-23T16:18:11.994Z,11.58
2022-09-23T16:20:43.256Z,11.46
2022-09-23T16:23:22.292Z,11.27
2022-09-23T16:25:50.349Z,11.24
2022-09-23T16:28:17.926Z,11.16
2022-09-23T16:30:45.607Z,11.11
2022-09-23T16:33:13.346Z,11.07
2022-09-23T16:35:42.420Z,11.01
2022-09-23T16:38:12.209Z,10.95
2022-09-23T16:40:43.576Z,10.87
2022-09-23T16:43:14.519Z,10.80
2022-09-23T16:45:42.761Z,10.65
2022-09-23T16:48:10.407Z,10.57
2022-09-23T16:50:39.490Z,10.51
2022-09-23T16:53:08.926Z,10.39
2022-09-23T16:55:36.636Z,10.23
2022-09-23T16:58:04.386Z,10.25
2022-09-23T17:00:32.590Z,10.21
2022-09-23T17:03:01.939Z,10.15
2022-09-23T17:05:29.620Z,10.03
2022-09-23T17:07:57.331Z,9.95
2022-09-23T17:10:26.591Z,9.93
2022-09-23T17:12:54.482Z,9.85
2022-09-23T17:15:23.303Z,9.73
2022-09-23T17:17:51.163Z,9.66
2022-09-23T17:20:19.165Z,9.62
2022-09-23T17:22:46.985Z,9.58
2022-09-23T17:25:14.605Z,9.58
2022-09-23T17:27:43.697Z,9.57
2022-09-23T17:30:12.490Z,9.43
2022-09-23T17:32:41.219Z,9.30
2022-09-23T17:35:10.410Z,9.31
2022-09-23T17:37:39.309Z,9.36
2022-09-23T17:40:10.745Z,9.27
2022-09-23T17:42:40.113Z,9.28
2022-09-23T17:45:10.043Z,9.19
2022-09-23T17:47:41.719Z,9.07
2022-09-23T17:50:10.004Z,8.90
2022-09-23T17:52:37.607Z,9.01
2022-09-23T17:55:08.706Z,9.00
2022-09-23T17:57:36.397Z,8.98
2022-09-23T18:00:04.646Z,8.97
2022-09-23T18:02:34.072Z,8.86
2022-09-23T18:05:01.782Z,8.85
2022-09-23T18:07:29.564Z,8.71
2022-09-23T18:09:57.388Z,8.70
2022-09-23T18:12:25.606Z,8.73
2022-09-23T18:14:53.477Z,8.67
2022-09-23T18:17:21.056Z,8.69
2022-09-23T18:19:50.462Z,8.66
2022-09-23T18:22:18.242Z,8.66
2022-09-23T18:24:45.864Z,8.59
2022-09-23T18:27:13.834Z,8.50
2022-09-23T18:29:41.400Z,8.45
2022-09-23T18:32:13.885Z,8.46
2022-09-23T18:34:43.505Z,8.38
2022-09-23T18:37:15.930Z,8.41
2022-09-23T18:39:45.464Z,8.38
2022-09-23T18:42:13.161Z,8.38
2022-09-23T18:44:40.841Z,8.38
2022-09-23T18:47:09.378Z,8.39
2022-09-23T18:49:37.984Z,8.40
2022-09-23T18:52:05.969Z,8.32
2022-09-23T18:54:35.280Z,8.28
2022-09-23T18:57:03.187Z,8.31
2022-09-23T18:59:31.076Z,8.33
2022-09-23T19:01:59.364Z,8.36
2022-09-23T19:04:27.532Z,8.37
2022-09-23T19:06:56.824Z,8.42
2022-09-23T19:09:25.519Z,8.48
2022-09-23T19:11:54.753Z,8.56
2022-09-23T19:14:22.739Z,8.65
2022-09-23T19:16:53.158Z,8.67
2022-09-23T19:19:21.101Z,8.68
2022-09-23T19:21:49.036Z,8.67
2022-09-23T19:24:17.218Z,8.71
2022-09-23T19:26:45.042Z,8.68
2022-09-23T19:29:16.642Z,8.73
2022-09-23T19:31:44.428Z,8.79
2022-09-23T19:34:14.100Z,8.84
2022-09-23T19:36:43.460Z,8.78
2022-09-23T19:39:16.451Z,8.89
2022-09-23T19:41:44.701Z,8.88
2022-09-23T19:44:12.725Z,8.89
2022-09-23T19:46:43.109Z,8.90
2022-09-23T19:49:11.253Z,8.83
2022-09-23T19:51:39.985Z,8.88
2022-09-23T19:54:08.934Z,8.94
2022-09-23T19:56:37.909Z,8.83
2022-09-23T19:59:06.377Z,8.81
2022-09-23T20:01:34.606Z,8.74
2022-09-23T20:04:04.016Z,8.77
2022-09-23T20:06:33.271Z,8.74
2022-09-23T20:09:01.761Z,8.75
2022-09-23T20:11:30.162Z,8.72
2022-09-23T20:14:00.110Z,8.74
2022-09-23T20:16:30.762Z,8.69
2022-09-23T20:18:58.804Z,8.60
2022-09-23T20:21:28.836Z,8.57
2022-09-23T20:23:57.397Z,8.54
2022-09-23T20:26:25.135Z,8.50
2022-09-23T20:28:52.939Z,8.50
2022-09-23T20:31:22.232Z,8.39
2022-09-23T20:33:51.548Z,8.38
2022-09-23T20:36:20.060Z,8.33
2022-09-23T20:38:53.558Z,8.35
2022-09-23T20:41:21.141Z,8.37
2022-09-23T20:43:52.365Z,8.31
2022-09-23T20:46:20.934Z,8.30
2022-09-23T20:48:48.966Z,8.27
2022-09-23T20:51:18.175Z,8.18
2022-09-23T20:53:49.910Z,8.17
2022-09-23T20:56:17.556Z,8.07
2022-09-23T20:58:45.146Z,8.09
2022-09-23T21:01:12.949Z,8.02
2022-09-23T21:03:44.053Z,7.94
2022-09-23T21:06:14.108Z,7.98
2022-09-23T21:08:42.867Z,8.02
2022-09-23T21:11:14.108Z,7.93
2022-09-23T21:13:45.579Z,7.87
2022-09-23T21:16:14.448Z,7.81
2022-09-23T21:18:42.505Z,7.84
2022-09-23T21:21:11.328Z,7.87
2022-09-23T21:23:40.171Z,7.93
2022-09-23T21:26:09.938Z,7.98
2022-09-23T21:28:41.232Z,8.03
2022-09-23T21:31:11.215Z,8.06
2022-09-23T21:33:39.103Z,8.05
2022-09-23T21:36:07.900Z,8.10
2022-09-23T21:38:36.336Z,8.13
2022-09-23T21:41:06.578Z,8.08
2022-09-23T21:43:36.020Z,8.04
2022-09-23T21:46:07.558Z,8.10
2022-09-23T21:48:37.162Z,8.15
2022-09-23T21:51:07.575Z,8.21
2022-09-23T21:53:36.030Z,8.23
2022-09-23T21:56:06.199Z,8.26
2022-09-23T21:58:35.325Z,8.24
2022-09-23T22:01:09.082Z,8.18
2022-09-23T22:03:36.969Z,8.18
2022-09-23T22:06:07.668Z,8.11
2022-09-23T22:08:38.130Z,8.07
2022-09-23T22:11:07.545Z,8.03
2022-09-23T22:13:35.739Z,8.06
2022-09-23T22:16:04.843Z,8.07
2022-09-23T22:18:33.933Z,8.09
2022-09-23T22:21:01.749Z,8.06
2022-09-23T22:23:29.598Z,8.02
2022-09-23T22:26:02.271Z,8.06
2022-09-23T22:28:32.652Z,7.95
2022-09-23T22:31:00.252Z,7.92
2022-09-23T22:33:27.864Z,7.91
2022-09-23T22:36:02.761Z,7.90
2022-09-23T22:38:30.436Z,7.87
2022-09-23T22:40:58.352Z,7.84
2022-09-23T22:43:26.437Z,7.79
2022-09-23T22:45:54.459Z,7.80
2022-09-23T22:48:21.989Z,7.74
2022-09-23T22:50:51.058Z,7.67
2022-09-23T22:53:20.749Z,7.67
2022-09-23T22:55:57.762Z,7.64
2022-09-23T22:58:32.338Z,7.64
2022-09-23T23:01:00.540Z,7.59
2022-09-23T23:03:28.418Z,7.58
2022-09-23T23:05:59.886Z,7.63
2022-09-23T23:08:30.290Z,7.67
2022-09-23T23:10:58.261Z,7.69
2022-09-23T23:13:30.134Z,7.79
2022-09-23T23:15:58.405Z,7.79
2022-09-23T23:18:31.049Z,7.86
2022-09-23T23:21:06.310Z,7.92
2022-09-23T23:23:37.778Z,7.91
2022-09-23T23:26:11.165Z,7.98
2022-09-23T23:28:39.768Z,7.96
2022-09-23T23:31:10.515Z,8.06
2022-09-23T23:33:38.981Z,8.07
2022-09-23T23:36:09.672Z,8.08
2022-09-23T23:38:40.954Z,8.12
2022-09-23T23:41:10.485Z,8.13
2022-09-23T23:43:38.715Z,8.15
2022-09-23T23:46:06.838Z,8.20
2022-09-23T23:48:35.496Z,8.24
2022-09-23T23:51:05.936Z,8.24
2022-09-23T23:53:36.375Z,8.29
2022-09-23T23:56:07.767Z,8.27
2022-09-23T23:58:35.841Z,8.21
